sensor_id;sensor_type;location;lat;lon;timestamp;P1;durP1;ratioP1;P2;durP2;ratioP2
17052;SDS011;8643;48.824;11.422;2022-11-27T00:01:52;17.20;;;8.93;;
17052;SDS011;8643;48.824;11.422;2022-11-27T00:04:20;14.87;;;7.87;;
17052;SDS011;8643;48.824;11.422;2022-11-27T00:06:49;16.23;;;7.23;;
17052;SDS011;8643;48.824;11.422;2022-11-27T00:09:17;33.93;;;7.97;;
17052;SDS011;8643;48.824;11.422;2022-11-27T00:11:46;24.33;;;7.40;;
17052;SDS011;8643;48.824;11.422;2022-11-27T00:14:16;19.90;;;7.17;;
17052;SDS011;8643;48.824;11.422;2022-11-27T00:16:45;14.73;;;6.97;;
17052;SDS011;8643;48.824;11.422;2022-11-27T00:19:13;21.67;;;6.93;;
17052;SDS011;8643;48.824;11.422;2022-11-27T00:21:42;19.73;;;6.70;;
17052;SDS011;8643;48.824;11.422;2022-11-27T00:24:10;30.60;;;7.87;;
17052;SDS011;8643;48.824;11.422;2022-11-27T00:26:39;11.87;;;7.07;;
17052;SDS011;8643;48.824;11.422;2022-11-27T00:29:08;11.73;;;6.90;;
17052;SDS011;8643;48.824;11.422;2022-11-27T00:31:38;22.43;;;8.23;;
17052;SDS011;8643;48.824;11.422;2022-11-27T00:34:07;12.60;;;7.10;;
17052;SDS011;8643;48.824;11.422;2022-11-27T00:36:37;15.27;;;7.80;;
17052;SDS011;8643;48.824;11.422;2022-11-27T00:39:12;13.50;;;6.60;;
17052;SDS011;8643;48.824;11.422;2022-11-27T00:41:40;47.57;;;8.43;;
17052;SDS011;8643;48.824;11.422;2022-11-27T00:44:09;63.37;;;9.30;;
17052;SDS011;8643;48.824;11.422;2022-11-27T00:46:40;21.63;;;8.13;;
17052;SDS011;8643;48.824;11.422;2022-11-27T00:49:09;36.47;;;9.70;;
17052;SDS011;8643;48.824;11.422;2022-11-27T00:51:40;15.73;;;8.60;;
17052;SDS011;8643;48.824;11.422;2022-11-27T00:54:09;16.63;;;8.43;;
17052;SDS011;8643;48.824;11.422;2022-11-27T00:56:38;52.87;;;10.40;;
17052;SDS011;8643;48.824;11.422;2022-11-27T00:59:07;184.73;;;13.93;;
17052;SDS011;8643;48.824;11.422;2022-11-27T01:01:39;73.60;;;11.47;;
17052;SDS011;8643;48.824;11.422;2022-11-27T01:04:11;130.63;;;12.50;;
17052;SDS011;8643;48.824;11.422;2022-11-27T01:06:41;129.50;;;12.93;;
17052;SDS011;8643;48.824;11.422;2022-11-27T01:09:11;22.73;;;9.73;;
17052;SDS011;8643;48.824;11.422;2022-11-27T01:11:41;27.00;;;10.00;;
17052;SDS011;8643;48.824;11.422;2022-11-27T01:14:11;34.27;;;9.23;;
17052;SDS011;8643;48.824;11.422;2022-11-27T01:16:44;22.47;;;9.30;;
17052;SDS011;8643;48.824;11.422;2022-11-27T01:19:13;27.73;;;9.63;;
17052;SDS011;8643;48.824;11.422;2022-11-27T01:21:42;32.87;;;9.60;;
17052;SDS011;8643;48.824;11.422;2022-11-27T01:24:11;36.37;;;8.70;;
17052;SDS011;8643;48.824;11.422;2022-11-27T01:26:42;28.10;;;9.33;;
17052;SDS011;8643;48.824;11.422;2022-11-27T01:29:12;34.80;;;9.97;;
17052;SDS011;8643;48.824;11.422;2022-11-27T01:31:40;23.60;;;8.83;;
17052;SDS011;8643;48.824;11.422;2022-11-27T01:34:13;33.87;;;7.93;;
17052;SDS011;8643;48.824;11.422;2022-11-27T01:36:44;28.00;;;9.03;;
17052;SDS011;8643;48.824;11.422;2022-11-27T01:39:13;31.43;;;8.63;;
17052;SDS011;8643;48.824;11.422;2022-11-27T01:41:44;13.93;;;7.90;;
17052;SDS011;8643;48.824;11.422;2022-11-27T01:47:24;45.60;;;8.70;;
17052;SDS011;8643;48.824;11.422;2022-11-27T01:50:09;39.03;;;8.27;;
17052;SDS011;8643;48.824;11.422;2022-11-27T01:52:45;21.30;;;6.73;;
17052;SDS011;8643;48.824;11.422;2022-11-27T01:55:20;18.07;;;6.67;;
17052;SDS011;8643;48.824;11.422;2022-11-27T01:57:56;57.30;;;7.83;;
17052;SDS011;8643;48.824;11.422;2022-11-27T02:00:31;44.57;;;6.63;;
17052;SDS011;8643;48.824;11.422;2022-11-27T02:03:00;90.63;;;7.77;;
17052;SDS011;8643;48.824;11.422;2022-11-27T02:05:30;11.90;;;5.13;;
17052;SDS011;8643;48.824;11.422;2022-11-27T02:08:00;18.00;;;5.83;;
17052;SDS011;8643;48.824;11.422;2022-11-27T02:10:37;11.10;;;5.53;;
17052;SDS011;8643;48.824;11.422;2022-11-27T02:13:19;31.90;;;7.17;;
17052;SDS011;8643;48.824;11.422;2022-11-27T02:15:59;144.03;;;12.20;;
17052;SDS011;8643;48.824;11.422;2022-11-27T02:18:46;67.07;;;6.70;;
17052;SDS011;8643;48.824;11.422;2022-11-27T02:21:28;73.17;;;7.40;;
17052;SDS011;8643;48.824;11.422;2022-11-27T02:24:19;81.33;;;7.93;;
17052;SDS011;8643;48.824;11.422;2022-11-27T02:27:27;14.80;;;6.10;;
17052;SDS011;8643;48.824;11.422;2022-11-27T02:30:20;47.27;;;6.83;;
17052;SDS011;8643;48.824;11.422;2022-11-27T02:32:50;65.70;;;7.63;;
17052;SDS011;8643;48.824;11.422;2022-11-27T02:35:26;12.80;;;5.47;;
17052;SDS011;8643;48.824;11.422;2022-11-27T02:38:01;10.47;;;5.27;;
17052;SDS011;8643;48.824;11.422;2022-11-27T02:40:37;34.63;;;7.90;;
17052;SDS011;8643;48.824;11.422;2022-11-27T02:43:14;74.07;;;7.80;;
17052;SDS011;8643;48.824;11.422;2022-11-27T02:45:50;63.20;;;6.93;;
17052;SDS011;8643;48.824;11.422;2022-11-27T02:48:20;107.70;;;8.07;;
17052;SDS011;8643;48.824;11.422;2022-11-27T02:50:56;167.90;;;8.80;;
17052;SDS011;8643;48.824;11.422;2022-11-27T02:53:29;8.30;;;4.47;;
17052;SDS011;8643;48.824;11.422;2022-11-27T02:56:03;23.27;;;5.53;;
17052;SDS011;8643;48.824;11.422;2022-11-27T02:58:38;70.90;;;6.60;;
17052;SDS011;8643;48.824;11.422;2022-11-27T03:01:10;15.80;;;4.77;;
17052;SDS011;8643;48.824;11.422;2022-11-27T03:03:41;81.80;;;6.53;;
17052;SDS011;8643;48.824;11.422;2022-11-27T03:06:18;96.30;;;7.50;;
17052;SDS011;8643;48.824;11.422;2022-11-27T03:08:54;107.67;;;6.57;;
17052;SDS011;8643;48.824;11.422;2022-11-27T03:11:26;51.13;;;6.23;;
17052;SDS011;8643;48.824;11.422;2022-11-27T03:13:57;53.30;;;6.40;;
17052;SDS011;8643;48.824;11.422;2022-11-27T03:16:34;15.20;;;4.70;;
17052;SDS011;8643;48.824;11.422;2022-11-27T03:19:11;48.33;;;6.70;;
17052;SDS011;8643;48.824;11.422;2022-11-27T03:21:50;101.40;;;7.43;;
17052;SDS011;8643;48.824;11.422;2022-11-27T03:24:23;19.33;;;5.23;;
17052;SDS011;8643;48.824;11.422;2022-11-27T03:26:51;119.93;;;7.90;;
17052;SDS011;8643;48.824;11.422;2022-11-27T03:29:21;231.23;;;11.43;;
17052;SDS011;8643;48.824;11.422;2022-11-27T03:31:57;236.03;;;10.17;;
17052;SDS011;8643;48.824;11.422;2022-11-27T03:34:28;70.23;;;6.40;;
17052;SDS011;8643;48.824;11.422;2022-11-27T03:36:57;66.10;;;8.83;;
17052;SDS011;8643;48.824;11.422;2022-11-27T03:39:26;125.27;;;8.67;;
17052;SDS011;8643;48.824;11.422;2022-11-27T03:41:58;164.13;;;11.00;;
17052;SDS011;8643;48.824;11.422;2022-11-27T03:44:41;23.50;;;5.33;;
17052;SDS011;8643;48.824;11.422;2022-11-27T03:47:20;216.20;;;10.47;;
17052;SDS011;8643;48.824;11.422;2022-11-27T03:50:09;16.13;;;5.13;;
17052;SDS011;8643;48.824;11.422;2022-11-27T03:52:59;28.10;;;5.23;;
17052;SDS011;8643;48.824;11.422;2022-11-27T03:55:39;33.77;;;4.50;;
17052;SDS011;8643;48.824;11.422;2022-11-27T03:58:21;35.37;;;4.77;;
17052;SDS011;8643;48.824;11.422;2022-11-27T04:00:59;97.63;;;6.47;;
17052;SDS011;8643;48.824;11.422;2022-11-27T04:03:34;66.83;;;5.90;;
17052;SDS011;8643;48.824;11.422;2022-11-27T04:06:03;28.60;;;5.77;;
17052;SDS011;8643;48.824;11.422;2022-11-27T04:08:32;72.10;;;5.83;;
17052;SDS011;8643;48.824;11.422;2022-11-27T04:11:01;48.50;;;5.10;;
17052;SDS011;8643;48.824;11.422;2022-11-27T04:13:29;42.37;;;5.30;;
17052;SDS011;8643;48.824;11.422;2022-11-27T04:15:58;47.10;;;4.90;;
17052;SDS011;8643;48.824;11.422;2022-11-27T04:18:27;32.37;;;4.80;;
17052;SDS011;8643;48.824;11.422;2022-11-27T04:20:57;55.20;;;5.63;;
17052;SDS011;8643;48.824;11.422;2022-11-27T04:23:26;41.67;;;5.60;;
17052;SDS011;8643;48.824;11.422;2022-11-27T04:25:54;26.90;;;5.30;;
17052;SDS011;8643;48.824;11.422;2022-11-27T04:28:23;58.43;;;6.90;;
17052;SDS011;8643;48.824;11.422;2022-11-27T04:30:51;36.57;;;5.33;;
17052;SDS011;8643;48.824;11.422;2022-11-27T04:33:20;50.67;;;5.07;;
17052;SDS011;8643;48.824;11.422;2022-11-27T04:35:49;129.93;;;6.80;;
17052;SDS011;8643;48.824;11.422;2022-11-27T04:38:20;59.37;;;5.53;;
17052;SDS011;8643;48.824;11.422;2022-11-27T04:40:49;46.50;;;5.20;;
17052;SDS011;8643;48.824;11.422;2022-11-27T04:43:19;50.83;;;5.23;;
17052;SDS011;8643;48.824;11.422;2022-11-27T04:45:47;59.93;;;5.70;;
17052;SDS011;8643;48.824;11.422;2022-11-27T04:48:16;40.90;;;5.50;;
17052;SDS011;8643;48.824;11.422;2022-11-27T04:50:44;127.43;;;7.00;;
17052;SDS011;8643;48.824;11.422;2022-11-27T04:53:13;107.57;;;7.43;;
17052;SDS011;8643;48.824;11.422;2022-11-27T04:55:43;31.63;;;5.60;;
17052;SDS011;8643;48.824;11.422;2022-11-27T04:58:12;40.90;;;5.93;;
17052;SDS011;8643;48.824;11.422;2022-11-27T05:00:40;104.43;;;7.30;;
17052;SDS011;8643;48.824;11.422;2022-11-27T05:03:08;54.27;;;5.90;;
17052;SDS011;8643;48.824;11.422;2022-11-27T05:05:37;57.00;;;6.23;;
17052;SDS011;8643;48.824;11.422;2022-11-27T05:08:06;18.30;;;5.40;;
17052;SDS011;8643;48.824;11.422;2022-11-27T05:10:34;60.43;;;6.00;;
17052;SDS011;8643;48.824;11.422;2022-11-27T05:13:04;25.60;;;5.43;;
17052;SDS011;8643;48.824;11.422;2022-11-27T05:15:33;73.63;;;6.87;;
17052;SDS011;8643;48.824;11.422;2022-11-27T05:18:02;109.93;;;7.93;;
17052;SDS011;8643;48.824;11.422;2022-11-27T05:20:32;33.13;;;6.17;;
17052;SDS011;8643;48.824;11.422;2022-11-27T05:23:11;39.23;;;5.93;;
17052;SDS011;8643;48.824;11.422;2022-11-27T05:25:40;57.37;;;7.13;;
17052;SDS011;8643;48.824;11.422;2022-11-27T05:28:11;58.00;;;6.83;;
17052;SDS011;8643;48.824;11.422;2022-11-27T05:30:49;36.07;;;6.67;;
17052;SDS011;8643;48.824;11.422;2022-11-27T05:33:21;59.07;;;6.97;;
17052;SDS011;8643;48.824;11.422;2022-11-27T05:35:54;50.53;;;5.83;;
17052;SDS011;8643;48.824;11.422;2022-11-27T05:38:23;60.07;;;6.67;;
17052;SDS011;8643;48.824;11.422;2022-11-27T05:40:52;31.23;;;5.97;;
17052;SDS011;8643;48.824;11.422;2022-11-27T05:43:23;70.50;;;7.17;;
17052;SDS011;8643;48.824;11.422;2022-11-27T05:45:55;37.07;;;6.33;;
17052;SDS011;8643;48.824;11.422;2022-11-27T05:48:31;93.10;;;7.80;;
17052;SDS011;8643;48.824;11.422;2022-11-27T05:54:17;23.27;;;5.90;;
17052;SDS011;8643;48.824;11.422;2022-11-27T05:57:05;37.73;;;6.63;;
17052;SDS011;8643;48.824;11.422;2022-11-27T06:00:21;29.17;;;6.63;;
17052;SDS011;8643;48.824;11.422;2022-11-27T06:03:10;33.50;;;7.37;;
17052;SDS011;8643;48.824;11.422;2022-11-27T06:06:17;40.40;;;6.70;;
17052;SDS011;8643;48.824;11.422;2022-11-27T06:09:06;51.77;;;7.70;;
17052;SDS011;8643;48.824;11.422;2022-11-27T06:11:39;42.40;;;7.47;;
17052;SDS011;8643;48.824;11.422;2022-11-27T06:14:09;35.67;;;6.83;;
17052;SDS011;8643;48.824;11.422;2022-11-27T06:16:40;29.17;;;7.23;;
17052;SDS011;8643;48.824;11.422;2022-11-27T06:19:08;22.97;;;6.80;;
17052;SDS011;8643;48.824;11.422;2022-11-27T06:21:37;124.30;;;9.13;;
17052;SDS011;8643;48.824;11.422;2022-11-27T06:24:06;43.40;;;7.47;;
17052;SDS011;8643;48.824;11.422;2022-11-27T06:26:35;74.13;;;8.30;;
17052;SDS011;8643;48.824;11.422;2022-11-27T06:29:03;26.60;;;7.53;;
17052;SDS011;8643;48.824;11.422;2022-11-27T06:31:32;34.37;;;7.57;;
17052;SDS011;8643;48.824;11.422;2022-11-27T06:34:03;56.40;;;8.40;;
17052;SDS011;8643;48.824;11.422;2022-11-27T06:36:33;50.10;;;7.87;;
17052;SDS011;8643;48.824;11.422;2022-11-27T06:39:06;45.10;;;7.97;;
17052;SDS011;8643;48.824;11.422;2022-11-27T06:41:37;105.60;;;9.23;;
17052;SDS011;8643;48.824;11.422;2022-11-27T06:44:05;75.83;;;8.53;;
17052;SDS011;8643;48.824;11.422;2022-11-27T06:46:35;29.43;;;7.47;;
17052;SDS011;8643;48.824;11.422;2022-11-27T06:49:05;70.20;;;8.40;;
17052;SDS011;8643;48.824;11.422;2022-11-27T06:51:34;91.80;;;8.57;;
17052;SDS011;8643;48.824;11.422;2022-11-27T06:54:03;125.43;;;10.37;;
17052;SDS011;8643;48.824;11.422;2022-11-27T06:56:31;157.53;;;10.03;;
17052;SDS011;8643;48.824;11.422;2022-11-27T06:59:00;34.87;;;6.73;;
17052;SDS011;8643;48.824;11.422;2022-11-27T07:01:29;125.13;;;10.77;;
17052;SDS011;8643;48.824;11.422;2022-11-27T07:04:01;66.70;;;8.47;;
17052;SDS011;8643;48.824;11.422;2022-11-27T07:06:31;86.37;;;8.50;;
17052;SDS011;8643;48.824;11.422;2022-11-27T07:09:00;148.93;;;9.27;;
17052;SDS011;8643;48.824;11.422;2022-11-27T07:11:29;64.23;;;7.43;;
17052;SDS011;8643;48.824;11.422;2022-11-27T07:14:02;100.67;;;10.40;;
17052;SDS011;8643;48.824;11.422;2022-11-27T07:16:38;59.43;;;9.50;;
17052;SDS011;8643;48.824;11.422;2022-11-27T07:19:16;87.93;;;11.07;;
17052;SDS011;8643;48.824;11.422;2022-11-27T07:21:47;70.90;;;8.60;;
17052;SDS011;8643;48.824;11.422;2022-11-27T07:24:15;72.00;;;8.97;;
17052;SDS011;8643;48.824;11.422;2022-11-27T07:26:45;57.80;;;8.60;;
17052;SDS011;8643;48.824;11.422;2022-11-27T07:29:15;73.93;;;10.00;;
17052;SDS011;8643;48.824;11.422;2022-11-27T07:31:44;66.83;;;9.57;;
17052;SDS011;8643;48.824;11.422;2022-11-27T07:34:19;61.50;;;9.90;;
17052;SDS011;8643;48.824;11.422;2022-11-27T07:36:57;68.47;;;11.03;;
17052;SDS011;8643;48.824;11.422;2022-11-27T07:39:26;60.47;;;9.67;;
17052;SDS011;8643;48.824;11.422;2022-11-27T07:42:15;75.33;;;10.90;;
17052;SDS011;8643;48.824;11.422;2022-11-27T07:45:07;102.53;;;11.10;;
17052;SDS011;8643;48.824;11.422;2022-11-27T07:47:52;64.17;;;9.60;;
17052;SDS011;8643;48.824;11.422;2022-11-27T07:50:21;89.40;;;10.77;;
17052;SDS011;8643;48.824;11.422;2022-11-27T07:53:00;127.37;;;12.53;;
17052;SDS011;8643;48.824;11.422;2022-11-27T07:55:30;53.03;;;10.13;;
17052;SDS011;8643;48.824;11.422;2022-11-27T07:58:03;56.13;;;10.93;;
17052;SDS011;8643;48.824;11.422;2022-11-27T08:00:40;44.50;;;10.97;;
17052;SDS011;8643;48.824;11.422;2022-11-27T08:03:10;87.07;;;12.80;;
17052;SDS011;8643;48.824;11.422;2022-11-27T08:05:42;62.63;;;11.87;;
17052;SDS011;8643;48.824;11.422;2022-11-27T08:08:46;65.43;;;12.33;;
17052;SDS011;8643;48.824;11.422;2022-11-27T08:11:18;47.33;;;12.47;;
17052;SDS011;8643;48.824;11.422;2022-11-27T08:14:04;57.90;;;12.93;;
17052;SDS011;8643;48.824;11.422;2022-11-27T08:20:10;52.00;;;12.93;;
17052;SDS011;8643;48.824;11.422;2022-11-27T08:22:54;61.20;;;13.20;;
17052;SDS011;8643;48.824;11.422;2022-11-27T08:29:04;57.67;;;13.13;;
17052;SDS011;8643;48.824;11.422;2022-11-27T08:31:54;50.20;;;13.17;;
17052;SDS011;8643;48.824;11.422;2022-11-27T08:34:22;38.90;;;12.20;;
17052;SDS011;8643;48.824;11.422;2022-11-27T08:36:52;43.50;;;11.93;;
17052;SDS011;8643;48.824;11.422;2022-11-27T08:39:20;71.57;;;11.83;;
17052;SDS011;8643;48.824;11.422;2022-11-27T08:41:50;45.30;;;12.47;;
17052;SDS011;8643;48.824;11.422;2022-11-27T08:44:19;54.87;;;11.70;;
17052;SDS011;8643;48.824;11.422;2022-11-27T08:46:47;51.97;;;12.03;;
17052;SDS011;8643;48.824;11.422;2022-11-27T08:49:16;44.27;;;11.67;;
17052;SDS011;8643;48.824;11.422;2022-11-27T08:51:44;32.67;;;11.47;;
17052;SDS011;8643;48.824;11.422;2022-11-27T08:54:13;46.93;;;11.33;;
17052;SDS011;8643;48.824;11.422;2022-11-27T08:56:41;40.80;;;12.13;;
17052;SDS011;8643;48.824;11.422;2022-11-27T08:59:11;32.83;;;11.97;;
17052;SDS011;8643;48.824;11.422;2022-11-27T09:01:40;34.30;;;12.30;;
17052;SDS011;8643;48.824;11.422;2022-11-27T09:04:08;30.30;;;11.37;;
17052;SDS011;8643;48.824;11.422;2022-11-27T09:06:39;28.60;;;10.27;;
17052;SDS011;8643;48.824;11.422;2022-11-27T09:09:08;25.87;;;9.90;;
17052;SDS011;8643;48.824;11.422;2022-11-27T09:11:37;38.10;;;10.70;;
17052;SDS011;8643;48.824;11.422;2022-11-27T09:14:05;32.13;;;12.00;;
17052;SDS011;8643;48.824;11.422;2022-11-27T09:16:36;25.40;;;10.40;;
17052;SDS011;8643;48.824;11.422;2022-11-27T09:19:04;24.60;;;10.40;;
17052;SDS011;8643;48.824;11.422;2022-11-27T09:21:33;31.83;;;10.80;;
17052;SDS011;8643;48.824;11.422;2022-11-27T09:24:01;31.97;;;10.87;;
17052;SDS011;8643;48.824;11.422;2022-11-27T09:26:30;25.20;;;10.80;;
17052;SDS011;8643;48.824;11.422;2022-11-27T09:28:58;31.23;;;10.80;;
17052;SDS011;8643;48.824;11.422;2022-11-27T09:31:26;28.93;;;10.73;;
17052;SDS011;8643;48.824;11.422;2022-11-27T09:33:57;29.97;;;11.33;;
17052;SDS011;8643;48.824;11.422;2022-11-27T09:36:26;23.07;;;10.23;;
17052;SDS011;8643;48.824;11.422;2022-11-27T09:38:56;30.37;;;12.50;;
17052;SDS011;8643;48.824;11.422;2022-11-27T09:44:20;25.93;;;10.73;;
17052;SDS011;8643;48.824;11.422;2022-11-27T09:47:00;20.73;;;9.37;;
17052;SDS011;8643;48.824;11.422;2022-11-27T09:49:44;22.43;;;9.37;;
17052;SDS011;8643;48.824;11.422;2022-11-27T09:52:19;21.10;;;10.20;;
17052;SDS011;8643;48.824;11.422;2022-11-27T09:54:55;20.97;;;9.97;;
17052;SDS011;8643;48.824;11.422;2022-11-27T09:57:30;25.60;;;10.80;;
17052;SDS011;8643;48.824;11.422;2022-11-27T10:00:04;27.20;;;11.60;;
17052;SDS011;8643;48.824;11.422;2022-11-27T10:02:42;21.90;;;9.60;;
17052;SDS011;8643;48.824;11.422;2022-11-27T10:05:14;24.53;;;10.33;;
17052;SDS011;8643;48.824;11.422;2022-11-27T10:10:51;20.03;;;8.73;;
17052;SDS011;8643;48.824;11.422;2022-11-27T10:13:46;18.63;;;10.03;;
17052;SDS011;8643;48.824;11.422;2022-11-27T10:16:33;21.73;;;9.73;;
17052;SDS011;8643;48.824;11.422;2022-11-27T10:19:14;21.00;;;9.90;;
17052;SDS011;8643;48.824;11.422;2022-11-27T10:22:00;20.27;;;10.13;;
17052;SDS011;8643;48.824;11.422;2022-11-27T10:24:48;21.67;;;10.13;;
17052;SDS011;8643;48.824;11.422;2022-11-27T10:27:39;22.17;;;10.00;;
17052;SDS011;8643;48.824;11.422;2022-11-27T10:30:14;22.60;;;10.80;;
17052;SDS011;8643;48.824;11.422;2022-11-27T10:32:45;23.33;;;10.67;;
17052;SDS011;8643;48.824;11.422;2022-11-27T10:35:22;22.87;;;10.00;;
17052;SDS011;8643;48.824;11.422;2022-11-27T10:37:54;18.23;;;9.47;;
17052;SDS011;8643;48.824;11.422;2022-11-27T10:40:33;21.10;;;9.97;;
17052;SDS011;8643;48.824;11.422;2022-11-27T10:43:09;20.27;;;10.40;;
17052;SDS011;8643;48.824;11.422;2022-11-27T10:45:45;19.33;;;10.43;;
17052;SDS011;8643;48.824;11.422;2022-11-27T10:48:18;22.07;;;10.23;;
17052;SDS011;8643;48.824;11.422;2022-11-27T10:50:48;20.60;;;10.47;;
17052;SDS011;8643;48.824;11.422;2022-11-27T10:53:22;20.70;;;10.97;;
17052;SDS011;8643;48.824;11.422;2022-11-27T10:56:05;19.77;;;10.43;;
17052;SDS011;8643;48.824;11.422;2022-11-27T10:58:54;18.50;;;10.07;;
17052;SDS011;8643;48.824;11.422;2022-11-27T11:01:26;20.27;;;10.03;;
17052;SDS011;8643;48.824;11.422;2022-11-27T11:04:08;20.57;;;10.27;;
17052;SDS011;8643;48.824;11.422;2022-11-27T11:06:59;21.17;;;9.97;;
17052;SDS011;8643;48.824;11.422;2022-11-27T11:09:30;18.73;;;9.63;;
17052;SDS011;8643;48.824;11.422;2022-11-27T11:12:07;17.27;;;9.73;;
17052;SDS011;8643;48.824;11.422;2022-11-27T11:14:40;23.70;;;10.30;;
17052;SDS011;8643;48.824;11.422;2022-11-27T11:17:21;20.37;;;10.40;;
17052;SDS011;8643;48.824;11.422;2022-11-27T11:19:52;21.07;;;10.60;;
17052;SDS011;8643;48.824;11.422;2022-11-27T11:22:21;20.67;;;10.43;;
17052;SDS011;8643;48.824;11.422;2022-11-27T11:24:52;21.50;;;10.37;;
17052;SDS011;8643;48.824;11.422;2022-11-27T11:27:22;20.70;;;9.60;;
17052;SDS011;8643;48.824;11.422;2022-11-27T11:29:55;23.83;;;9.93;;
17052;SDS011;8643;48.824;11.422;2022-11-27T11:32:28;19.20;;;9.83;;
17052;SDS011;8643;48.824;11.422;2022-11-27T11:34:59;20.07;;;10.57;;
17052;SDS011;8643;48.824;11.422;2022-11-27T11:37:34;18.37;;;9.80;;
17052;SDS011;8643;48.824;11.422;2022-11-27T11:40:20;18.53;;;9.57;;
17052;SDS011;8643;48.824;11.422;2022-11-27T11:42:53;20.37;;;10.30;;
17052;SDS011;8643;48.824;11.422;2022-11-27T11:45:25;16.63;;;9.17;;
17052;SDS011;8643;48.824;11.422;2022-11-27T11:47:59;16.40;;;9.67;;
17052;SDS011;8643;48.824;11.422;2022-11-27T11:50:31;16.57;;;9.27;;
17052;SDS011;8643;48.824;11.422;2022-11-27T11:53:09;18.30;;;9.00;;
17052;SDS011;8643;48.824;11.422;2022-11-27T11:55:50;15.37;;;9.27;;
17052;SDS011;8643;48.824;11.422;2022-11-27T11:58:43;15.07;;;8.60;;
17052;SDS011;8643;48.824;11.422;2022-11-27T12:01:24;19.70;;;9.00;;
17052;SDS011;8643;48.824;11.422;2022-11-27T12:04:39;16.10;;;9.30;;
17052;SDS011;8643;48.824;11.422;2022-11-27T12:07:32;17.23;;;9.27;;
17052;SDS011;8643;48.824;11.422;2022-11-27T12:10:21;18.53;;;8.90;;
17052;SDS011;8643;48.824;11.422;2022-11-27T12:13:01;15.87;;;9.30;;
17052;SDS011;8643;48.824;11.422;2022-11-27T12:15:46;16.23;;;9.03;;
17052;SDS011;8643;48.824;11.422;2022-11-27T12:18:25;13.73;;;8.83;;
17052;SDS011;8643;48.824;11.422;2022-11-27T12:21:11;17.07;;;8.70;;
17052;SDS011;8643;48.824;11.422;2022-11-27T12:23:46;17.80;;;8.90;;
17052;SDS011;8643;48.824;11.422;2022-11-27T12:26:32;13.83;;;8.83;;
17052;SDS011;8643;48.824;11.422;2022-11-27T12:29:24;14.73;;;8.03;;
17052;SDS011;8643;48.824;11.422;2022-11-27T12:32:24;16.87;;;9.30;;
17052;SDS011;8643;48.824;11.422;2022-11-27T12:35:22;16.87;;;10.37;;
17052;SDS011;8643;48.824;11.422;2022-11-27T12:41:25;17.80;;;9.83;;
17052;SDS011;8643;48.824;11.422;2022-11-27T12:44:20;17.77;;;9.97;;
17052;SDS011;8643;48.824;11.422;2022-11-27T12:46:55;17.60;;;10.67;;
17052;SDS011;8643;48.824;11.422;2022-11-27T12:49:31;17.63;;;10.13;;
17052;SDS011;8643;48.824;11.422;2022-11-27T12:52:06;18.27;;;11.33;;
17052;SDS011;8643;48.824;11.422;2022-11-27T12:54:44;17.90;;;9.50;;
17052;SDS011;8643;48.824;11.422;2022-11-27T12:57:22;20.50;;;10.90;;
17052;SDS011;8643;48.824;11.422;2022-11-27T13:00:05;23.30;;;11.93;;
17052;SDS011;8643;48.824;11.422;2022-11-27T13:02:42;18.87;;;10.60;;
17052;SDS011;8643;48.824;11.422;2022-11-27T13:05:23;21.80;;;11.40;;
17052;SDS011;8643;48.824;11.422;2022-11-27T13:07:57;21.27;;;10.50;;
17052;SDS011;8643;48.824;11.422;2022-11-27T13:10:34;19.10;;;10.60;;
17052;SDS011;8643;48.824;11.422;2022-11-27T13:13:10;19.27;;;10.00;;
17052;SDS011;8643;48.824;11.422;2022-11-27T13:15:51;19.23;;;10.53;;
17052;SDS011;8643;48.824;11.422;2022-11-27T13:18:25;17.57;;;10.17;;
17052;SDS011;8643;48.824;11.422;2022-11-27T13:21:01;21.43;;;10.83;;
17052;SDS011;8643;48.824;11.422;2022-11-27T13:23:35;16.63;;;10.03;;
17052;SDS011;8643;48.824;11.422;2022-11-27T13:26:04;19.07;;;9.93;;
17052;SDS011;8643;48.824;11.422;2022-11-27T13:28:41;16.87;;;9.67;;
17052;SDS011;8643;48.824;11.422;2022-11-27T13:31:16;18.40;;;9.80;;
17052;SDS011;8643;48.824;11.422;2022-11-27T13:33:50;15.27;;;9.03;;
17052;SDS011;8643;48.824;11.422;2022-11-27T13:36:25;18.20;;;9.53;;
17052;SDS011;8643;48.824;11.422;2022-11-27T13:39:03;16.27;;;8.97;;
17052;SDS011;8643;48.824;11.422;2022-11-27T13:41:33;16.57;;;9.20;;
17052;SDS011;8643;48.824;11.422;2022-11-27T13:44:17;18.50;;;9.10;;
17052;SDS011;8643;48.824;11.422;2022-11-27T13:46:53;17.33;;;8.77;;
17052;SDS011;8643;48.824;11.422;2022-11-27T13:49:27;17.43;;;9.63;;
17052;SDS011;8643;48.824;11.422;2022-11-27T13:52:06;15.43;;;8.90;;
17052;SDS011;8643;48.824;11.422;2022-11-27T13:54:39;17.27;;;8.70;;
17052;SDS011;8643;48.824;11.422;2022-11-27T13:57:19;14.37;;;8.10;;
17052;SDS011;8643;48.824;11.422;2022-11-27T13:59:56;15.30;;;8.90;;
17052;SDS011;8643;48.824;11.422;2022-11-27T14:02:39;15.97;;;8.57;;
17052;SDS011;8643;48.824;11.422;2022-11-27T14:05:10;14.57;;;8.67;;
17052;SDS011;8643;48.824;11.422;2022-11-27T14:07:42;18.80;;;9.27;;
17052;SDS011;8643;48.824;11.422;2022-11-27T14:10:16;19.37;;;9.90;;
17052;SDS011;8643;48.824;11.422;2022-11-27T14:12:52;16.40;;;8.70;;
17052;SDS011;8643;48.824;11.422;2022-11-27T14:15:27;20.20;;;9.37;;
17052;SDS011;8643;48.824;11.422;2022-11-27T14:18:05;16.33;;;9.03;;
17052;SDS011;8643;48.824;11.422;2022-11-27T14:20:44;18.93;;;9.33;;
17052;SDS011;8643;48.824;11.422;2022-11-27T14:23:24;18.53;;;9.53;;
17052;SDS011;8643;48.824;11.422;2022-11-27T14:26:05;19.73;;;9.40;;
17052;SDS011;8643;48.824;11.422;2022-11-27T14:28:47;15.63;;;8.70;;
17052;SDS011;8643;48.824;11.422;2022-11-27T14:31:24;18.60;;;8.83;;
17052;SDS011;8643;48.824;11.422;2022-11-27T14:33:57;16.47;;;8.67;;
17052;SDS011;8643;48.824;11.422;2022-11-27T14:36:49;18.13;;;8.57;;
17052;SDS011;8643;48.824;11.422;2022-11-27T14:39:23;18.60;;;10.73;;
17052;SDS011;8643;48.824;11.422;2022-11-27T14:41:55;17.77;;;9.53;;
17052;SDS011;8643;48.824;11.422;2022-11-27T14:44:25;18.97;;;9.70;;
17052;SDS011;8643;48.824;11.422;2022-11-27T14:46:56;18.27;;;9.47;;
17052;SDS011;8643;48.824;11.422;2022-11-27T14:49:29;21.67;;;10.30;;
17052;SDS011;8643;48.824;11.422;2022-11-27T14:52:01;18.20;;;10.13;;
17052;SDS011;8643;48.824;11.422;2022-11-27T14:54:34;20.87;;;10.00;;
17052;SDS011;8643;48.824;11.422;2022-11-27T14:57:06;19.97;;;9.97;;
17052;SDS011;8643;48.824;11.422;2022-11-27T14:59:44;20.43;;;10.53;;
17052;SDS011;8643;48.824;11.422;2022-11-27T15:02:15;19.70;;;9.93;;
17052;SDS011;8643;48.824;11.422;2022-11-27T15:05:01;18.20;;;10.30;;
17052;SDS011;8643;48.824;11.422;2022-11-27T15:07:33;20.90;;;9.87;;
17052;SDS011;8643;48.824;11.422;2022-11-27T15:10:16;18.40;;;9.63;;
17052;SDS011;8643;48.824;11.422;2022-11-27T15:12:57;19.30;;;9.70;;
17052;SDS011;8643;48.824;11.422;2022-11-27T15:15:28;18.27;;;9.40;;
17052;SDS011;8643;48.824;11.422;2022-11-27T15:18:05;20.87;;;9.50;;
17052;SDS011;8643;48.824;11.422;2022-11-27T15:20:46;19.00;;;9.73;;
17052;SDS011;8643;48.824;11.422;2022-11-27T15:23:15;20.47;;;9.70;;
17052;SDS011;8643;48.824;11.422;2022-11-27T15:25:47;21.67;;;10.53;;
17052;SDS011;8643;48.824;11.422;2022-11-27T15:28:35;23.33;;;10.83;;
17052;SDS011;8643;48.824;11.422;2022-11-27T15:31:22;21.60;;;10.27;;
17052;SDS011;8643;48.824;11.422;2022-11-27T15:33:55;23.93;;;10.07;;
17052;SDS011;8643;48.824;11.422;2022-11-27T15:36:35;21.90;;;10.60;;